sensor_id;sensor_type;location;lat;lon;timestamp;P1;P2;P0
24012;PMS7003;12220;50.194;18.948;2023-02-01T00:03:08;21;17;11
24012;PMS7003;12220;50.194;18.948;2023-02-01T00:05:10;24;20;15
24012;PMS7003;12220;50.194;18.948;2023-02-01T00:07:22;18;15;10
24012;PMS7003;12220;50.194;18.948;2023-02-01T00:09:24;21;14;10
24012;PMS7003;12220;50.194;18.948;2023-02-01T00:11:25;17;16;13
24012;PMS7003;12220;50.194;18.948;2023-02-01T00:13:30;17;17;13
24012;PMS7003;12220;50.194;18.948;2023-02-01T00:15:36;22;21;14
24012;PMS7003;12220;50.194;18.948;2023-02-01T00:17:37;22;18;13
24012;PMS7003;12220;50.194;18.948;2023-02-01T00:19:39;19;17;14
24012;PMS7003;12220;50.194;18.948;2023-02-01T00:21:40;17;13;12
24012;PMS7003;12220;50.194;18.948;2023-02-01T00:23:49;20;13;12
24012;PMS7003;12220;50.194;18.948;2023-02-01T00:25:51;12;12;9
24012;PMS7003;12220;50.194;18.948;2023-02-01T00:27:52;13;12;9
24012;PMS7003;12220;50.194;18.948;2023-02-01T00:29:54;13;11;9
24012;PMS7003;12220;50.194;18.948;2023-02-01T00:32:05;18;17;14
24012;PMS7003;12220;50.194;18.948;2023-02-01T00:34:06;12;12;10
24012;PMS7003;12220;50.194;18.948;2023-02-01T00:36:09;14;13;9
24012;PMS7003;12220;50.194;18.948;2023-02-01T00:38:11;16;15;12
24012;PMS7003;12220;50.194;18.948;2023-02-01T00:40:20;11;11;9
24012;PMS7003;12220;50.194;18.948;2023-02-01T00:42:23;13;9;8
24012;PMS7003;12220;50.194;18.948;2023-02-01T00:44:25;20;12;10
24012;PMS7003;12220;50.194;18.948;2023-02-01T00:46:27;14;13;10
24012;PMS7003;12220;50.194;18.948;2023-02-01T00:48:35;13;12;9
24012;PMS7003;12220;50.194;18.948;2023-02-01T00:55:49;9;9;6
24012;PMS7003;12220;50.194;18.948;2023-02-01T00:57:50;14;10;7
24012;PMS7003;12220;50.194;18.948;2023-02-01T00:59:52;10;9;6
24012;PMS7003;12220;50.194;18.948;2023-02-01T01:01:54;13;9;7
24012;PMS7003;12220;50.194;18.948;2023-02-01T01:04:04;9;8;7
24012;PMS7003;12220;50.194;18.948;2023-02-01T01:06:07;7;5;5
24012;PMS7003;12220;50.194;18.948;2023-02-01T01:08:14;7;7;5
24012;PMS7003;12220;50.194;18.948;2023-02-01T01:10:16;5;5;4
24012;PMS7003;12220;50.194;18.948;2023-02-01T01:12:19;5;5;4
24012;PMS7003;12220;50.194;18.948;2023-02-01T01:14:20;2;2;2
24012;PMS7003;12220;50.194;18.948;2023-02-01T01:16:23;5;3;3
24012;PMS7003;12220;50.194;18.948;2023-02-01T01:18:26;4;1;0
24012;PMS7003;12220;50.194;18.948;2023-02-01T01:20:35;0;0;0
24012;PMS7003;12220;50.194;18.948;2023-02-01T01:22:38;0;0;0
24012;PMS7003;12220;50.194;18.948;2023-02-01T01:24:39;0;0;0
24012;PMS7003;12220;50.194;18.948;2023-02-01T01:26:41;0;0;0
24012;PMS7003;12220;50.194;18.948;2023-02-01T01:28:49;0;0;0
24012;PMS7003;12220;50.194;18.948;2023-02-01T01:30:51;0;0;0
24012;PMS7003;12220;50.194;18.948;2023-02-01T01:32:53;0;0;0
24012;PMS7003;12220;50.194;18.948;2023-02-01T01:34:54;0;0;0
24012;PMS7003;12220;50.194;18.948;2023-02-01T01:37:04;0;0;0
24012;PMS7003;12220;50.194;18.948;2023-02-01T01:39:06;0;0;0
24012;PMS7003;12220;50.194;18.948;2023-02-01T01:41:08;0;0;0
24012;PMS7003;12220;50.194;18.948;2023-02-01T01:43:15;0;0;0
24012;PMS7003;12220;50.194;18.948;2023-02-01T01:47:42;0;0;0
24012;PMS7003;12220;50.194;18.948;2023-02-01T01:49:48;0;0;0
24012;PMS7003;12220;50.194;18.948;2023-02-01T01:51:51;0;0;0
24012;PMS7003;12220;50.194;18.948;2023-02-01T01:56:12;1;0;0
24012;PMS7003;12220;50.194;18.948;2023-02-01T01:58:22;0;0;0
24012;PMS7003;12220;50.194;18.948;2023-02-01T02:00:27;0;0;0
24012;PMS7003;12220;50.194;18.948;2023-02-01T02:02:29;0;0;0
24012;PMS7003;12220;50.194;18.948;2023-02-01T02:04:31;0;0;0
24012;PMS7003;12220;50.194;18.948;2023-02-01T02:08:58;1;1;1
24012;PMS7003;12220;50.194;18.948;2023-02-01T02:11:00;1;1;1
24012;PMS7003;12220;50.194;18.948;2023-02-01T02:13:02;3;3;3
24012;PMS7003;12220;50.194;18.948;2023-02-01T02:24:34;0;0;0
24012;PMS7003;12220;50.194;18.948;2023-02-01T02:38:31;0;0;0
24012;PMS7003;12220;50.194;18.948;2023-02-01T02:43:55;0;0;0
24012;PMS7003;12220;50.194;18.948;2023-02-01T02:45:38;0;0;0
24012;PMS7003;12220;50.194;18.948;2023-02-01T02:50:18;2;0;0
24012;PMS7003;12220;50.194;18.948;2023-02-01T02:52:42;1;1;1
24012;PMS7003;12220;50.194;18.948;2023-02-01T02:55:03;2;0;0
24012;PMS7003;12220;50.194;18.948;2023-02-01T02:57:07;1;1;1
24012;PMS7003;12220;50.194;18.948;2023-02-01T02:59:27;1;1;1
24012;PMS7003;12220;50.194;18.948;2023-02-01T03:01:43;1;1;1
24012;PMS7003;12220;50.194;18.948;2023-02-01T03:03:56;3;2;2
24012;PMS7003;12220;50.194;18.948;2023-02-01T03:06:13;1;1;1
24012;PMS7003;12220;50.194;18.948;2023-02-01T03:08:22;3;3;2
24012;PMS7003;12220;50.194;18.948;2023-02-01T03:12:59;4;4;3
24012;PMS7003;12220;50.194;18.948;2023-02-01T03:15:17;11;4;3
24012;PMS7003;12220;50.194;18.948;2023-02-01T03:17:21;3;3;2
24012;PMS7003;12220;50.194;18.948;2023-02-01T03:24:14;4;2;2
24012;PMS7003;12220;50.194;18.948;2023-02-01T03:26:17;3;3;2
24012;PMS7003;12220;50.194;18.948;2023-02-01T03:28:22;4;3;3
24012;PMS7003;12220;50.194;18.948;2023-02-01T03:30:27;3;3;2
24012;PMS7003;12220;50.194;18.948;2023-02-01T03:32:38;4;3;3
24012;PMS7003;12220;50.194;18.948;2023-02-01T03:34:55;2;2;1
24012;PMS7003;12220;50.194;18.948;2023-02-01T03:36:58;1;1;1
24012;PMS7003;12220;50.194;18.948;2023-02-01T03:41:28;3;2;1
24012;PMS7003;12220;50.194;18.948;2023-02-01T03:43:55;5;4;2
24012;PMS7003;12220;50.194;18.948;2023-02-01T03:46:09;1;1;1
24012;PMS7003;12220;50.194;18.948;2023-02-01T03:48:17;4;2;2
24012;PMS7003;12220;50.194;18.948;2023-02-01T03:50:21;1;1;1
24012;PMS7003;12220;50.194;18.948;2023-02-01T03:52:30;1;1;1
24012;PMS7003;12220;50.194;18.948;2023-02-01T03:54:38;1;1;1
24012;PMS7003;12220;50.194;18.948;2023-02-01T03:56:47;2;2;2
24012;PMS7003;12220;50.194;18.948;2023-02-01T03:58:51;1;1;1
24012;PMS7003;12220;50.194;18.948;2023-02-01T04:01:01;2;2;1
24012;PMS7003;12220;50.194;18.948;2023-02-01T04:03:03;2;2;2
24012;PMS7003;12220;50.194;18.948;2023-02-01T04:05:06;3;3;2
24012;PMS7003;12220;50.194;18.948;2023-02-01T04:07:08;4;4;4
24012;PMS7003;12220;50.194;18.948;2023-02-01T04:09:10;6;5;4
24012;PMS7003;12220;50.194;18.948;2023-02-01T04:11:11;5;5;5
24012;PMS7003;12220;50.194;18.948;2023-02-01T04:13:21;9;9;7
24012;PMS7003;12220;50.194;18.948;2023-02-01T04:15:22;12;10;7
24012;PMS7003;12220;50.194;18.948;2023-02-01T04:17:24;15;12;8
24012;PMS7003;12220;50.194;18.948;2023-02-01T04:19:34;9;8;7
24012;PMS7003;12220;50.194;18.948;2023-02-01T04:21:36;13;12;6
24012;PMS7003;12220;50.194;18.948;2023-02-01T04:23:43;9;9;7
24012;PMS7003;12220;50.194;18.948;2023-02-01T04:25:44;10;10;6
24012;PMS7003;12220;50.194;18.948;2023-02-01T04:27:46;12;11;7
24012;PMS7003;12220;50.194;18.948;2023-02-01T04:29:51;12;12;7
24012;PMS7003;12220;50.194;18.948;2023-02-01T04:31:53;16;12;7
24012;PMS7003;12220;50.194;18.948;2023-02-01T04:33:54;12;10;9
24012;PMS7003;12220;50.194;18.948;2023-02-01T04:35:58;10;8;6
24012;PMS7003;12220;50.194;18.948;2023-02-01T04:38:06;10;10;7
24012;PMS7003;12220;50.194;18.948;2023-02-01T04:40:08;10;6;4
24012;PMS7003;12220;50.194;18.948;2023-02-01T04:42:10;12;8;6
24012;PMS7003;12220;50.194;18.948;2023-02-01T04:44:15;6;6;5
24012;PMS7003;12220;50.194;18.948;2023-02-01T04:46:21;9;9;7
24012;PMS7003;12220;50.194;18.948;2023-02-01T04:48:23;9;5;5
24012;PMS7003;12220;50.194;18.948;2023-02-01T04:50:28;6;5;4
24012;PMS7003;12220;50.194;18.948;2023-02-01T04:52:29;8;5;4
24012;PMS7003;12220;50.194;18.948;2023-02-01T04:54:37;5;3;3
24012;PMS7003;12220;50.194;18.948;2023-02-01T04:56:38;4;4;2
24012;PMS7003;12220;50.194;18.948;2023-02-01T04:58:40;5;5;4
24012;PMS7003;12220;50.194;18.948;2023-02-01T05:00:41;5;5;4
24012;PMS7003;12220;50.194;18.948;2023-02-01T05:02:51;4;4;3
24012;PMS7003;12220;50.194;18.948;2023-02-01T05:04:53;9;6;4
24012;PMS7003;12220;50.194;18.948;2023-02-01T05:06:56;11;6;5
24012;PMS7003;12220;50.194;18.948;2023-02-01T05:08:58;5;4;4
24012;PMS7003;12220;50.194;18.948;2023-02-01T05:11:07;14;10;8
24012;PMS7003;12220;50.194;18.948;2023-02-01T05:13:28;12;9;6
24012;PMS7003;12220;50.194;18.948;2023-02-01T05:15:53;16;12;11
24012;PMS7003;12220;50.194;18.948;2023-02-01T05:17:57;16;14;10
24012;PMS7003;12220;50.194;18.948;2023-02-01T05:20:02;14;14;9
24012;PMS7003;12220;50.194;18.948;2023-02-01T05:22:04;14;12;9
24012;PMS7003;12220;50.194;18.948;2023-02-01T05:24:07;9;8;6
24012;PMS7003;12220;50.194;18.948;2023-02-01T05:26:28;15;14;9
24012;PMS7003;12220;50.194;18.948;2023-02-01T05:28:30;12;9;6
24012;PMS7003;12220;50.194;18.948;2023-02-01T05:30:32;10;10;8
24012;PMS7003;12220;50.194;18.948;2023-02-01T05:32:35;11;10;7
24012;PMS7003;12220;50.194;18.948;2023-02-01T05:34:43;11;11;7
24012;PMS7003;12220;50.194;18.948;2023-02-01T05:36:45;12;12;8
24012;PMS7003;12220;50.194;18.948;2023-02-01T05:38:48;9;9;6
24012;PMS7003;12220;50.194;18.948;2023-02-01T05:43:29;12;8;7
24012;PMS7003;12220;50.194;18.948;2023-02-01T05:45:39;8;6;5
24012;PMS7003;12220;50.194;18.948;2023-02-01T05:47:41;8;8;6
24012;PMS7003;12220;50.194;18.948;2023-02-01T05:49:43;10;9;5
24012;PMS7003;12220;50.194;18.948;2023-02-01T05:51:44;9;8;7
24012;PMS7003;12220;50.194;18.948;2023-02-01T05:53:46;7;7;6
24012;PMS7003;12220;50.194;18.948;2023-02-01T05:55:56;9;9;7
24012;PMS7003;12220;50.194;18.948;2023-02-01T05:57:58;11;8;6
24012;PMS7003;12220;50.194;18.948;2023-02-01T05:59:59;13;10;7
24012;PMS7003;12220;50.194;18.948;2023-02-01T06:02:01;11;7;5
24012;PMS7003;12220;50.194;18.948;2023-02-01T06:04:11;7;7;4
24012;PMS7003;12220;50.194;18.948;2023-02-01T06:06:16;11;9;7
24012;PMS7003;12220;50.194;18.948;2023-02-01T06:08:20;13;12;9
24012;PMS7003;12220;50.194;18.948;2023-02-01T06:10:24;12;12;8
24012;PMS7003;12220;50.194;18.948;2023-02-01T06:12:26;14;14;8
24012;PMS7003;12220;50.194;18.948;2023-02-01T06:14:29;17;12;9
24012;PMS7003;12220;50.194;18.948;2023-02-01T06:16:30;16;12;9
24012;PMS7003;12220;50.194;18.948;2023-02-01T06:18:32;14;11;10
24012;PMS7003;12220;50.194;18.948;2023-02-01T06:20:42;15;15;10
24012;PMS7003;12220;50.194;18.948;2023-02-01T06:22:43;14;14;8
24012;PMS7003;12220;50.194;18.948;2023-02-01T06:24:45;15;7;5
24012;PMS7003;12220;50.194;18.948;2023-02-01T06:26:46;21;14;11
24012;PMS7003;12220;50.194;18.948;2023-02-01T06:28:57;19;15;12
24012;PMS7003;12220;50.194;18.948;2023-02-01T06:31:02;18;11;8
24012;PMS7003;12220;50.194;18.948;2023-02-01T06:33:07;18;14;9
24012;PMS7003;12220;50.194;18.948;2023-02-01T06:35:08;17;13;11
24012;PMS7003;12220;50.194;18.948;2023-02-01T06:37:16;17;15;12
24012;PMS7003;12220;50.194;18.948;2023-02-01T06:39:18;17;12;9
24012;PMS7003;12220;50.194;18.948;2023-02-01T06:41:20;13;13;8
24012;PMS7003;12220;50.194;18.948;2023-02-01T06:43:24;21;16;9
24012;PMS7003;12220;50.194;18.948;2023-02-01T06:45:27;15;14;9
24012;PMS7003;12220;50.194;18.948;2023-02-01T06:47:29;17;14;8
24012;PMS7003;12220;50.194;18.948;2023-02-01T06:49:30;22;14;8
24012;PMS7003;12220;50.194;18.948;2023-02-01T06:51:35;11;8;7
24012;PMS7003;12220;50.194;18.948;2023-02-01T06:53:42;13;11;8
24012;PMS7003;12220;50.194;18.948;2023-02-01T06:57:57;16;14;7
24012;PMS7003;12220;50.194;18.948;2023-02-01T06:59:58;11;10;7
24012;PMS7003;12220;50.194;18.948;2023-02-01T07:02:02;11;9;6
24012;PMS7003;12220;50.194;18.948;2023-02-01T07:04:03;10;9;6
24012;PMS7003;12220;50.194;18.948;2023-02-01T07:06:08;14;13;7
24012;PMS7003;12220;50.194;18.948;2023-02-01T07:08:10;17;16;12
24012;PMS7003;12220;50.194;18.948;2023-02-01T07:10:17;14;12;8
24012;PMS7003;12220;50.194;18.948;2023-02-01T07:12:18;12;10;8
24012;PMS7003;12220;50.194;18.948;2023-02-01T07:14:22;22;14;8
24012;PMS7003;12220;50.194;18.948;2023-02-01T07:16:24;18;11;6
24012;PMS7003;12220;50.194;18.948;2023-02-01T07:18:32;12;11;8
24012;PMS7003;12220;50.194;18.948;2023-02-01T07:20:34;14;10;9
24012;PMS7003;12220;50.194;18.948;2023-02-01T07:22:35;8;7;4
24012;PMS7003;12220;50.194;18.948;2023-02-01T07:24:48;13;9;7
24012;PMS7003;12220;50.194;18.948;2023-02-01T07:26:49;14;11;8
24012;PMS7003;12220;50.194;18.948;2023-02-01T07:28:52;16;14;9
24012;PMS7003;12220;50.194;18.948;2023-02-01T07:35:40;17;14;10
24012;PMS7003;12220;50.194;18.948;2023-02-01T07:37:42;18;15;11
24012;PMS7003;12220;50.194;18.948;2023-02-01T07:39:52;24;18;13
24012;PMS7003;12220;50.194;18.948;2023-02-01T07:41:53;16;15;13
24012;PMS7003;12220;50.194;18.948;2023-02-01T07:43:57;12;12;9
24012;PMS7003;12220;50.194;18.948;2023-02-01T07:46:01;15;13;8
24012;PMS7003;12220;50.194;18.948;2023-02-01T07:48:07;11;11;8
24012;PMS7003;12220;50.194;18.948;2023-02-01T07:50:09;24;20;9
24012;PMS7003;12220;50.194;18.948;2023-02-01T07:52:10;16;12;9
24012;PMS7003;12220;50.194;18.948;2023-02-01T07:54:16;5;5;4
24012;PMS7003;12220;50.194;18.948;2023-02-01T07:56:22;14;13;9
24012;PMS7003;12220;50.194;18.948;2023-02-01T07:58:24;16;12;9
24012;PMS7003;12220;50.194;18.948;2023-02-01T08:00:26;20;13;11
24012;PMS7003;12220;50.194;18.948;2023-02-01T08:02:42;11;10;8
24012;PMS7003;12220;50.194;18.948;2023-02-01T08:04:43;14;13;8
24012;PMS7003;12220;50.194;18.948;2023-02-01T08:06:45;17;17;14
24012;PMS7003;12220;50.194;18.948;2023-02-01T08:08:47;13;11;9
24012;PMS7003;12220;50.194;18.948;2023-02-01T08:10:49;15;13;10
24012;PMS7003;12220;50.194;18.948;2023-02-01T08:12:57;18;17;13
24012;PMS7003;12220;50.194;18.948;2023-02-01T08:15:00;18;16;12
24012;PMS7003;12220;50.194;18.948;2023-02-01T08:17:02;26;19;14
24012;PMS7003;12220;50.194;18.948;2023-02-01T08:19:03;20;16;12
24012;PMS7003;12220;50.194;18.948;2023-02-01T08:21:08;11;10;9
24012;PMS7003;12220;50.194;18.948;2023-02-01T08:23:12;18;17;12
24012;PMS7003;12220;50.194;18.948;2023-02-01T08:25:14;14;14;11
24012;PMS7003;12220;50.194;18.948;2023-02-01T08:27:16;20;17;12
24012;PMS7003;12220;50.194;18.948;2023-02-01T08:29:22;17;14;11
24012;PMS7003;12220;50.194;18.948;2023-02-01T08:31:24;15;15;12
24012;PMS7003;12220;50.194;18.948;2023-02-01T08:33:27;24;22;15
24012;PMS7003;12220;50.194;18.948;2023-02-01T08:35:28;20;20;13
24012;PMS7003;12220;50.194;18.948;2023-02-01T08:37:37;18;15;11
24012;PMS7003;12220;50.194;18.948;2023-02-01T08:39:42;17;16;12
24012;PMS7003;12220;50.194;18.948;2023-02-01T08:41:47;17;16;11
24012;PMS7003;12220;50.194;18.948;2023-02-01T08:43:59;29;22;16
24012;PMS7003;12220;50.194;18.948;2023-02-01T08:46:02;25;23;18
24012;PMS7003;12220;50.194;18.948;2023-02-01T08:48:14;21;20;16
24012;PMS7003;12220;50.194;18.948;2023-02-01T08:50:15;22;18;12
24012;PMS7003;12220;50.194;18.948;2023-02-01T08:52:18;31;22;16
24012;PMS7003;12220;50.194;18.948;2023-02-01T08:54:20;23;22;16
24012;PMS7003;12220;50.194;18.948;2023-02-01T08:56:29;27;27;18
24012;PMS7003;12220;50.194;18.948;2023-02-01T08:58:30;19;18;13
24012;PMS7003;12220;50.194;18.948;2023-02-01T09:00:32;23;22;15
24012;PMS7003;12220;50.194;18.948;2023-02-01T09:02:33;24;20;16
24012;PMS7003;12220;50.194;18.948;2023-02-01T09:04:44;28;23;17
24012;PMS7003;12220;50.194;18.948;2023-02-01T09:06:45;22;21;16
24012;PMS7003;12220;50.194;18.948;2023-02-01T09:08:47;26;21;14
24012;PMS7003;12220;50.194;18.948;2023-02-01T09:10:49;19;17;11
24012;PMS7003;12220;50.194;18.948;2023-02-01T09:12:59;21;19;16
24012;PMS7003;12220;50.194;18.948;2023-02-01T09:15:04;20;16;13
24012;PMS7003;12220;50.194;18.948;2023-02-01T09:17:08;24;15;12
24012;PMS7003;12220;50.194;18.948;2023-02-01T09:19:10;20;15;12
24012;PMS7003;12220;50.194;18.948;2023-02-01T09:21:14;17;15;12
24012;PMS7003;12220;50.194;18.948;2023-02-01T09:23:16;16;14;10
24012;PMS7003;12220;50.194;18.948;2023-02-01T09:25:17;22;19;12
24012;PMS7003;12220;50.194;18.948;2023-02-01T09:27:19;13;12;9
24012;PMS7003;12220;50.194;18.948;2023-02-01T09:29:29;15;14;10
24012;PMS7003;12220;50.194;18.948;2023-02-01T09:31:31;16;15;11
24012;PMS7003;12220;50.194;18.948;2023-02-01T09:33:33;18;15;10
24012;PMS7003;12220;50.194;18.948;2023-02-01T09:35:34;12;12;10
24012;PMS7003;12220;50.194;18.948;2023-02-01T09:37:44;17;17;12
24012;PMS7003;12220;50.194;18.948;2023-02-01T09:39:46;16;11;8
24012;PMS7003;12220;50.194;18.948;2023-02-01T09:48:33;18;12;10
24012;PMS7003;12220;50.194;18.948;2023-02-01T09:50:44;19;13;10
24012;PMS7003;12220;50.194;18.948;2023-02-01T09:55:04;17;12;9
24012;PMS7003;12220;50.194;18.948;2023-02-01T09:57:16;13;12;11
24012;PMS7003;12220;50.194;18.948;2023-02-01T10:01:37;17;16;9
24012;PMS7003;12220;50.194;18.948;2023-02-01T10:03:39;13;12;8
24012;PMS7003;12220;50.194;18.948;2023-02-01T10:08:04;24;20;10
24012;PMS7003;12220;50.194;18.948;2023-02-01T10:12:33;14;12;9
24012;PMS7003;12220;50.194;18.948;2023-02-01T10:26:20;17;12;8
24012;PMS7003;12220;50.194;18.948;2023-02-01T10:28:23;15;14;11
24012;PMS7003;12220;50.194;18.948;2023-02-01T10:30:29;20;17;9
24012;PMS7003;12220;50.194;18.948;2023-02-01T10:32:38;16;16;12
24012;PMS7003;12220;50.194;18.948;2023-02-01T10:34:42;14;13;9
24012;PMS7003;12220;50.194;18.948;2023-02-01T10:39:14;16;11;7
24012;PMS7003;12220;50.194;18.948;2023-02-01T10:43:24;21;16;10
24012;PMS7003;12220;50.194;18.948;2023-02-01T10:45:27;8;8;5
24012;PMS7003;12220;50.194;18.948;2023-02-01T10:47:30;10;9;6
24012;PMS7003;12220;50.194;18.948;2023-02-01T11:26:00;17;16;10
24012;PMS7003;12220;50.194;18.948;2023-02-01T11:28:10;6;6;4
24012;PMS7003;12220;50.194;18.948;2023-02-01T11:30:21;14;12;9
24012;PMS7003;12220;50.194;18.948;2023-02-01T11:32:32;16;14;10
24012;PMS7003;12220;50.194;18.948;2023-02-01T11:34:37;16;14;10
24012;PMS7003;12220;50.194;18.948;2023-02-01T11:36:42;23;18;13
24012;PMS7003;12220;50.194;18.948;2023-02-01T11:43:31;17;17;12
24012;PMS7003;12220;50.194;18.948;2023-02-01T11:45:30;20;18;11
24012;PMS7003;12220;50.194;18.948;2023-02-01T11:47:38;17;16;12
24012;PMS7003;12220;50.194;18.948;2023-02-01T11:49:42;21;20;13
24012;PMS7003;12220;50.194;18.948;2023-02-01T11:51:50;13;10;6
24012;PMS7003;12220;50.194;18.948;2023-02-01T12:00:59;14;14;12
24012;PMS7003;12220;50.194;18.948;2023-02-01T12:08:02;16;16;11
24012;PMS7003;12220;50.194;18.948;2023-02-01T12:12:41;21;18;14
24012;PMS7003;12220;50.194;18.948;2023-02-01T12:15:04;20;18;13
24012;PMS7003;12220;50.194;18.948;2023-02-01T12:17:31;17;17;12
24012;PMS7003;12220;50.194;18.948;2023-02-01T12:24:33;21;20;14
24012;PMS7003;12220;50.194;18.948;2023-02-01T12:26:54;20;16;10
24012;PMS7003;12220;50.194;18.948;2023-02-01T12:36:18;15;15;11
24012;PMS7003;12220;50.194;18.948;2023-02-01T12:38:38;19;16;12
24012;PMS7003;12220;50.194;18.948;2023-02-01T12:45:43;17;17;11
24012;PMS7003;12220;50.194;18.948;2023-02-01T12:50:23;13;10;7
24012;PMS7003;12220;50.194;18.948;2023-02-01T12:52:44;17;14;8
24012;PMS7003;12220;50.194;18.948;2023-02-01T12:54:50;14;14;11
24012;PMS7003;12220;50.194;18.948;2023-02-01T12:57:02;17;17;10
24012;PMS7003;12220;50.194;18.948;2023-02-01T12:59:16;15;12;9
24012;PMS7003;12220;50.194;18.948;2023-02-01T13:01:27;19;15;11
24012;PMS7003;12220;50.194;18.948;2023-02-01T13:08:12;10;9;7
24012;PMS7003;12220;50.194;18.948;2023-02-01T13:10:24;12;12;9
24012;PMS7003;12220;50.194;18.948;2023-02-01T13:12:36;16;15;11
24012;PMS7003;12220;50.194;18.948;2023-02-01T13:14:46;15;14;7
24012;PMS7003;12220;50.194;18.948;2023-02-01T13:16:57;27;18;14
24012;PMS7003;12220;50.194;18.948;2023-02-01T13:21:24;20;16;11
24012;PMS7003;12220;50.194;18.948;2023-02-01T13:23:34;22;22;17
24012;PMS7003;12220;50.194;18.948;2023-02-01T13:27:53;20;19;14
24012;PMS7003;12220;50.194;18.948;2023-02-01T13:30:10;20;18;12
24012;PMS7003;12220;50.194;18.948;2023-02-01T13:36:53;29;22;17
24012;PMS7003;12220;50.194;18.948;2023-02-01T13:43:53;26;22;15
24012;PMS7003;12220;50.194;18.948;2023-02-01T13:46:02;22;19;15
24012;PMS7003;12220;50.194;18.948;2023-02-01T13:48:16;20;16;11
24012;PMS7003;12220;50.194;18.948;2023-02-01T13:52:36;19;14;10
24012;PMS7003;12220;50.194;18.948;2023-02-01T13:54:42;17;14;11
24012;PMS7003;12220;50.194;18.948;2023-02-01T13:56:44;18;18;11
24012;PMS7003;12220;50.194;18.948;2023-02-01T13:58:46;18;13;9
24012;PMS7003;12220;50.194;18.948;2023-02-01T14:00:49;13;12;10
24012;PMS7003;12220;50.194;18.948;2023-02-01T14:07:35;17;14;11
24012;PMS7003;12220;50.194;18.948;2023-02-01T14:09:36;15;15;12
24012;PMS7003;12220;50.194;18.948;2023-02-01T14:11:40;16;12;9
24012;PMS7003;12220;50.194;18.948;2023-02-01T14:13:47;18;18;12
24012;PMS7003;12220;50.194;18.948;2023-02-01T14:16:32;23;19;13
24012;PMS7003;12220;50.194;18.948;2023-02-01T14:25:03;16;13;9
24012;PMS7003;12220;50.194;18.948;2023-02-01T14:31:39;25;23;14
24012;PMS7003;12220;50.194;18.948;2023-02-01T14:33:42;17;16;12
24012;PMS7003;12220;50.194;18.948;2023-02-01T14:36:00;17;14;13
24012;PMS7003;12220;50.194;18.948;2023-02-01T14:38:14;23;19;15
24012;PMS7003;12220;50.194;18.948;2023-02-01T14:40:17;23;18;13
24012;PMS7003;12220;50.194;18.948;2023-02-01T14:44:37;17;15;11
24012;PMS7003;12220;50.194;18.948;2023-02-01T14:48:52;20;19;13
24012;PMS7003;12220;50.194;18.948;2023-02-01T14:50:54;28;27;17
24012;PMS7003;12220;50.194;18.948;2023-02-01T14:55:27;24;21;15
24012;PMS7003;12220;50.194;18.948;2023-02-01T14:57:28;23;21;14
24012;PMS7003;12220;50.194;18.948;2023-02-01T14:59:32;19;18;13
24012;PMS7003;12220;50.194;18.948;2023-02-01T15:01:38;23;20;14
24012;PMS7003;12220;50.194;18.948;2023-02-01T15:06:00;26;21;14
24012;PMS7003;12220;50.194;18.948;2023-02-01T15:08:06;28;26;17
24012;PMS7003;12220;50.194;18.948;2023-02-01T15:10:17;20;19;13
24012;PMS7003;12220;50.194;18.948;2023-02-01T15:12:26;19;19;15
24012;PMS7003;12220;50.194;18.948;2023-02-01T15:16:43;25;19;12
24012;PMS7003;12220;50.194;18.948;2023-02-01T15:19:12;23;20;14
24012;PMS7003;12220;50.194;18.948;2023-02-01T15:23:24;23;15;10
24012;PMS7003;12220;50.194;18.948;2023-02-01T15:25:44;15;12;9
24012;PMS7003;12220;50.194;18.948;2023-02-01T15:27:47;16;11;5
24012;PMS7003;12220;50.194;18.948;2023-02-01T15:29:49;17;17;9
24012;PMS7003;12220;50.194;18.948;2023-02-01T15:31:51;19;14;8
24012;PMS7003;12220;50.194;18.948;2023-02-01T15:33:57;18;17;11
24012;PMS7003;12220;50.194;18.948;2023-02-01T15:40:29;24;21;14
24012;PMS7003;12220;50.194;18.948;2023-02-01T15:42:34;24;22;14
24012;PMS7003;12220;50.194;18.948;2023-02-01T15:44:40;27;24;16
24012;PMS7003;12220;50.194;18.948;2023-02-01T15:46:46;23;21;14
24012;PMS7003;12220;50.194;18.948;2023-02-01T15:48:51;22;20;14
24012;PMS7003;12220;50.194;18.948;2023-02-01T15:50:55;24;22;14
24012;PMS7003;12220;50.194;18.948;2023-02-01T15:52:59;13;13;10
24012;PMS7003;12220;50.194;18.948;2023-02-01T15:55:03;20;14;9
24012;PMS7003;12220;50.194;18.948;2023-02-01T15:57:09;21;18;13
24012;PMS7003;12220;50.194;18.948;2023-02-01T15:59:15;14;14;10
24012;PMS7003;12220;50.194;18.948;2023-02-01T16:01:18;12;12;9
24012;PMS7003;12220;50.194;18.948;2023-02-01T16:05:42;12;10;9
24012;PMS7003;12220;50.194;18.948;2023-02-01T16:07:53;11;11;8
24012;PMS7003;12220;50.194;18.948;2023-02-01T16:10:18;10;10;8
24012;PMS7003;12220;50.194;18.948;2023-02-01T16:12:45;10;10;6
24012;PMS7003;12220;50.194;18.948;2023-02-01T16:14:31;8;8;7
24012;PMS7003;12220;50.194;18.948;2023-02-01T16:16:46;11;10;7
24012;PMS7003;12220;50.194;18.948;2023-02-01T16:18:48;12;10;8
24012;PMS7003;12220;50.194;18.948;2023-02-01T16:20:49;12;12;8
24012;PMS7003;12220;50.194;18.948;2023-02-01T16:22:51;15;13;9
24012;PMS7003;12220;50.194;18.948;2023-02-01T16:25:01;15;15;11
24012;PMS7003;12220;50.194;18.948;2023-02-01T16:27:03;16;13;12
24012;PMS7003;12220;50.194;18.948;2023-02-01T16:29:07;17;16;12
24012;PMS7003;12220;50.194;18.948;2023-02-01T16:31:13;13;13;11
24012;PMS7003;12220;50.194;18.948;2023-02-01T16:33:20;17;16;11
24012;PMS7003;12220;50.194;18.948;2023-02-01T16:35:26;17;16;12
24012;PMS7003;12220;50.194;18.948;2023-02-01T16:37:35;19;19;14
24012;PMS7003;12220;50.194;18.948;2023-02-01T16:39:37;14;14;11
24012;PMS7003;12220;50.194;18.948;2023-02-01T16:41:40;19;19;12
24012;PMS7003;12220;50.194;18.948;2023-02-01T16:43:42;28;26;16
24012;PMS7003;12220;50.194;18.948;2023-02-01T16:45:44;19;16;12
24012;PMS7003;12220;50.194;18.948;2023-02-01T16:47:49;20;18;13
24012;PMS7003;12220;50.194;18.948;2023-02-01T16:49:55;21;18;12
24012;PMS7003;12220;50.194;18.948;2023-02-01T16:52:00;23;17;11
24012;PMS7003;12220;50.194;18.948;2023-02-01T16:54:01;29;19;11
24012;PMS7003;12220;50.194;18.948;2023-02-01T16:56:10;29;22;14
24012;PMS7003;12220;50.194;18.948;2023-02-01T16:58:14;22;19;12
24012;PMS7003;12220;50.194;18.948;2023-02-01T17:00:17;19;17;12
24012;PMS7003;12220;50.194;18.948;2023-02-01T17:02:20;22;17;13
24012;PMS7003;12220;50.194;18.948;2023-02-01T17:04:24;19;15;12
24012;PMS7003;12220;50.194;18.948;2023-02-01T17:06:26;22;17;12
24012;PMS7003;12220;50.194;18.948;2023-02-01T17:08:36;20;20;10
24012;PMS7003;12220;50.194;18.948;2023-02-01T17:10:41;19;15;10
24012;PMS7003;12220;50.194;18.948;2023-02-01T17:12:43;13;13;9